sensor_id;sensor_type;location;lat;lon;timestamp;temperature;humidity
38582;DHT22;24349;53.720;10.014;2023-08-06T00:00:05;16.80;99.90
38582;DHT22;24349;53.720;10.014;2023-08-06T00:02:30;16.80;99.90
38582;DHT22;24349;53.720;10.014;2023-08-06T00:04:56;16.80;99.90
38582;DHT22;24349;53.720;10.014;2023-08-06T00:07:22;16.70;99.90
38582;DHT22;24349;53.720;10.014;2023-08-06T00:09:48;16.80;99.90
38582;DHT22;24349;53.720;10.014;2023-08-06T00:12:13;16.80;99.90
38582;DHT22;24349;53.720;10.014;2023-08-06T00:14:39;16.80;99.90
38582;DHT22;24349;53.720;10.014;2023-08-06T00:17:04;16.90;99.90
38582;DHT22;24349;53.720;10.014;2023-08-06T00:19:31;17.00;99.90
38582;DHT22;24349;53.720;10.014;2023-08-06T00:21:57;17.10;99.90
38582;DHT22;24349;53.720;10.014;2023-08-06T00:24:23;17.20;99.90
38582;DHT22;24349;53.720;10.014;2023-08-06T00:26:48;17.20;99.90
38582;DHT22;24349;53.720;10.014;2023-08-06T00:29:14;17.20;99.90
38582;DHT22;24349;53.720;10.014;2023-08-06T00:31:39;17.10;99.90
38582;DHT22;24349;53.720;10.014;2023-08-06T00:34:05;17.20;99.90
38582;DHT22;24349;53.720;10.014;2023-08-06T00:36:31;17.10;99.90
38582;DHT22;24349;53.720;10.014;2023-08-06T00:38:56;17.00;99.90
38582;DHT22;24349;53.720;10.014;2023-08-06T00:41:22;16.90;99.90
38582;DHT22;24349;53.720;10.014;2023-08-06T00:43:47;17.00;99.90
38582;DHT22;24349;53.720;10.014;2023-08-06T00:46:13;17.00;99.90
38582;DHT22;24349;53.720;10.014;2023-08-06T00:48:40;17.10;99.90
38582;DHT22;24349;53.720;10.014;2023-08-06T00:51:06;17.10;99.90
38582;DHT22;24349;53.720;10.014;2023-08-06T00:53:32;17.10;99.90
38582;DHT22;24349;53.720;10.014;2023-08-06T00:55:58;17.10;99.90
38582;DHT22;24349;53.720;10.014;2023-08-06T00:58:25;17.10;99.90
38582;DHT22;24349;53.720;10.014;2023-08-06T01:00:50;16.90;99.90
38582;DHT22;24349;53.720;10.014;2023-08-06T01:03:16;16.90;99.90
38582;DHT22;24349;53.720;10.014;2023-08-06T01:05:41;17.00;99.90
38582;DHT22;24349;53.720;10.014;2023-08-06T01:13:48;16.90;99.90
38582;DHT22;24349;53.720;10.014;2023-08-06T01:16:18;16.90;99.90
38582;DHT22;24349;53.720;10.014;2023-08-06T01:18:44;16.90;99.90
38582;DHT22;24349;53.720;10.014;2023-08-06T01:21:15;16.80;99.90
38582;DHT22;24349;53.720;10.014;2023-08-06T01:23:42;16.80;99.90
38582;DHT22;24349;53.720;10.014;2023-08-06T01:31:44;16.90;99.90
38582;DHT22;24349;53.720;10.014;2023-08-06T01:34:24;16.80;99.90
38582;DHT22;24349;53.720;10.014;2023-08-06T01:36:51;16.90;99.90
38582;DHT22;24349;53.720;10.014;2023-08-06T01:39:17;17.00;99.90
38582;DHT22;24349;53.720;10.014;2023-08-06T01:41:49;16.90;99.90
38582;DHT22;24349;53.720;10.014;2023-08-06T01:44:15;16.90;99.90
38582;DHT22;24349;53.720;10.014;2023-08-06T01:46:41;16.90;99.90
38582;DHT22;24349;53.720;10.014;2023-08-06T01:49:07;16.80;99.90
38582;DHT22;24349;53.720;10.014;2023-08-06T01:51:32;16.80;99.90
38582;DHT22;24349;53.720;10.014;2023-08-06T01:53:58;16.80;99.90
38582;DHT22;24349;53.720;10.014;2023-08-06T01:56:24;16.80;99.90
38582;DHT22;24349;53.720;10.014;2023-08-06T01:58:49;16.70;99.90
38582;DHT22;24349;53.720;10.014;2023-08-06T02:01:15;16.70;99.90
38582;DHT22;24349;53.720;10.014;2023-08-06T02:03:41;16.70;99.90
38582;DHT22;24349;53.720;10.014;2023-08-06T02:06:06;16.60;99.90
38582;DHT22;24349;53.720;10.014;2023-08-06T02:08:32;16.60;99.90
38582;DHT22;24349;53.720;10.014;2023-08-06T02:10:57;16.60;99.90
38582;DHT22;24349;53.720;10.014;2023-08-06T02:13:23;16.60;99.90
38582;DHT22;24349;53.720;10.014;2023-08-06T02:15:49;16.50;99.90
38582;DHT22;24349;53.720;10.014;2023-08-06T02:18:15;16.50;99.90
38582;DHT22;24349;53.720;10.014;2023-08-06T02:20:42;16.40;99.90
38582;DHT22;24349;53.720;10.014;2023-08-06T02:23:07;16.50;99.90
38582;DHT22;24349;53.720;10.014;2023-08-06T02:25:33;16.40;99.90
38582;DHT22;24349;53.720;10.014;2023-08-06T02:27:59;16.40;99.90
38582;DHT22;24349;53.720;10.014;2023-08-06T02:30:25;16.30;99.90
38582;DHT22;24349;53.720;10.014;2023-08-06T02:32:50;16.30;99.90
38582;DHT22;24349;53.720;10.014;2023-08-06T02:35:16;16.30;99.90
38582;DHT22;24349;53.720;10.014;2023-08-06T02:37:42;16.30;99.90
38582;DHT22;24349;53.720;10.014;2023-08-06T02:40:08;16.30;99.90
38582;DHT22;24349;53.720;10.014;2023-08-06T02:42:33;16.20;99.90
38582;DHT22;24349;53.720;10.014;2023-08-06T02:45:02;16.20;99.90
38582;DHT22;24349;53.720;10.014;2023-08-06T02:47:28;16.20;99.90
38582;DHT22;24349;53.720;10.014;2023-08-06T02:49:54;16.20;99.90
38582;DHT22;24349;53.720;10.014;2023-08-06T02:52:20;16.20;99.90
38582;DHT22;24349;53.720;10.014;2023-08-06T02:54:45;16.10;99.90
38582;DHT22;24349;53.720;10.014;2023-08-06T02:57:11;16.10;99.90
38582;DHT22;24349;53.720;10.014;2023-08-06T02:59:36;16.10;99.90
38582;DHT22;24349;53.720;10.014;2023-08-06T03:02:02;16.10;99.90
38582;DHT22;24349;53.720;10.014;2023-08-06T03:04:28;16.10;99.90
38582;DHT22;24349;53.720;10.014;2023-08-06T03:06:53;16.10;99.90
38582;DHT22;24349;53.720;10.014;2023-08-06T03:09:19;16.20;99.90
38582;DHT22;24349;53.720;10.014;2023-08-06T03:11:44;16.10;99.90
38582;DHT22;24349;53.720;10.014;2023-08-06T03:14:10;16.10;99.90
38582;DHT22;24349;53.720;10.014;2023-08-06T03:16:36;16.10;99.90
38582;DHT22;24349;53.720;10.014;2023-08-06T03:19:01;16.00;99.90
38582;DHT22;24349;53.720;10.014;2023-08-06T03:21:27;16.00;99.90
38582;DHT22;24349;53.720;10.014;2023-08-06T03:23:53;16.00;99.90
38582;DHT22;24349;53.720;10.014;2023-08-06T03:26:18;16.00;99.90
38582;DHT22;24349;53.720;10.014;2023-08-06T03:28:44;15.90;99.90
38582;DHT22;24349;53.720;10.014;2023-08-06T03:31:09;15.90;99.90
38582;DHT22;24349;53.720;10.014;2023-08-06T03:33:35;15.90;99.90
38582;DHT22;24349;53.720;10.014;2023-08-06T03:36:01;15.90;99.90
38582;DHT22;24349;53.720;10.014;2023-08-06T03:38:27;15.90;99.90
38582;DHT22;24349;53.720;10.014;2023-08-06T03:40:53;15.90;99.90
38582;DHT22;24349;53.720;10.014;2023-08-06T03:43:18;15.90;99.90
38582;DHT22;24349;53.720;10.014;2023-08-06T03:45:44;15.90;99.90
38582;DHT22;24349;53.720;10.014;2023-08-06T03:48:10;15.80;99.90
38582;DHT22;24349;53.720;10.014;2023-08-06T03:50:35;15.80;99.90
38582;DHT22;24349;53.720;10.014;2023-08-06T03:53:01;15.80;99.90
38582;DHT22;24349;53.720;10.014;2023-08-06T03:55:27;15.90;99.90
38582;DHT22;24349;53.720;10.014;2023-08-06T03:57:52;15.90;99.90
38582;DHT22;24349;53.720;10.014;2023-08-06T04:00:18;15.90;99.90
38582;DHT22;24349;53.720;10.014;2023-08-06T04:02:44;15.90;99.90
38582;DHT22;24349;53.720;10.014;2023-08-06T04:05:09;15.90;99.90
38582;DHT22;24349;53.720;10.014;2023-08-06T04:07:35;15.90;99.90
38582;DHT22;24349;53.720;10.014;2023-08-06T04:10:03;15.80;99.90
38582;DHT22;24349;53.720;10.014;2023-08-06T04:12:29;15.80;99.90
38582;DHT22;24349;53.720;10.014;2023-08-06T04:14:57;15.80;99.90
38582;DHT22;24349;53.720;10.014;2023-08-06T04:17:22;15.80;99.90
38582;DHT22;24349;53.720;10.014;2023-08-06T04:19:53;15.80;99.90
38582;DHT22;24349;53.720;10.014;2023-08-06T04:22:20;15.80;99.90
38582;DHT22;24349;53.720;10.014;2023-08-06T04:24:46;15.80;99.90
38582;DHT22;24349;53.720;10.014;2023-08-06T04:27:13;15.80;99.90
38582;DHT22;24349;53.720;10.014;2023-08-06T04:29:39;15.90;99.90
38582;DHT22;24349;53.720;10.014;2023-08-06T04:32:09;15.90;99.90
38582;DHT22;24349;53.720;10.014;2023-08-06T04:34:35;15.90;99.90
38582;DHT22;24349;53.720;10.014;2023-08-06T04:37:02;15.90;99.90
38582;DHT22;24349;53.720;10.014;2023-08-06T04:39:28;15.90;99.90
38582;DHT22;24349;53.720;10.014;2023-08-06T04:41:55;15.90;99.90
38582;DHT22;24349;53.720;10.014;2023-08-06T04:44:22;15.80;99.90
38582;DHT22;24349;53.720;10.014;2023-08-06T04:46:47;15.90;99.90
38582;DHT22;24349;53.720;10.014;2023-08-06T04:49:13;15.90;99.90
38582;DHT22;24349;53.720;10.014;2023-08-06T04:51:38;15.90;99.90
38582;DHT22;24349;53.720;10.014;2023-08-06T04:54:04;15.90;99.90
38582;DHT22;24349;53.720;10.014;2023-08-06T04:56:30;15.90;99.90
38582;DHT22;24349;53.720;10.014;2023-08-06T04:58:55;15.80;99.90
38582;DHT22;24349;53.720;10.014;2023-08-06T05:01:21;15.80;99.90
38582;DHT22;24349;53.720;10.014;2023-08-06T05:03:47;15.80;99.90
38582;DHT22;24349;53.720;10.014;2023-08-06T05:06:13;15.80;99.90
38582;DHT22;24349;53.720;10.014;2023-08-06T05:08:38;15.70;99.90
38582;DHT22;24349;53.720;10.014;2023-08-06T05:11:04;15.80;99.90
38582;DHT22;24349;53.720;10.014;2023-08-06T05:13:29;15.70;99.90
38582;DHT22;24349;53.720;10.014;2023-08-06T05:15:55;15.80;99.90
38582;DHT22;24349;53.720;10.014;2023-08-06T05:18:21;15.70;99.90
38582;DHT22;24349;53.720;10.014;2023-08-06T05:20:47;15.80;99.90
38582;DHT22;24349;53.720;10.014;2023-08-06T05:23:13;15.80;99.90
38582;DHT22;24349;53.720;10.014;2023-08-06T05:25:38;15.80;99.90
38582;DHT22;24349;53.720;10.014;2023-08-06T05:28:04;15.80;99.90
38582;DHT22;24349;53.720;10.014;2023-08-06T05:30:30;15.80;99.90
38582;DHT22;24349;53.720;10.014;2023-08-06T05:32:56;15.70;99.90
38582;DHT22;24349;53.720;10.014;2023-08-06T05:35:22;15.80;99.90
38582;DHT22;24349;53.720;10.014;2023-08-06T05:37:48;15.90;99.90
38582;DHT22;24349;53.720;10.014;2023-08-06T05:40:14;15.90;99.90
38582;DHT22;24349;53.720;10.014;2023-08-06T05:42:40;16.00;99.90
38582;DHT22;24349;53.720;10.014;2023-08-06T05:45:06;15.90;99.90
38582;DHT22;24349;53.720;10.014;2023-08-06T05:47:32;16.00;99.90
38582;DHT22;24349;53.720;10.014;2023-08-06T05:49:57;16.10;99.90
38582;DHT22;24349;53.720;10.014;2023-08-06T05:52:23;16.10;99.90
38582;DHT22;24349;53.720;10.014;2023-08-06T05:54:48;16.10;99.90
38582;DHT22;24349;53.720;10.014;2023-08-06T05:57:14;16.00;99.90
38582;DHT22;24349;53.720;10.014;2023-08-06T05:59:41;16.10;99.90
38582;DHT22;24349;53.720;10.014;2023-08-06T06:02:07;16.10;99.90
38582;DHT22;24349;53.720;10.014;2023-08-06T06:04:33;16.10;99.90
38582;DHT22;24349;53.720;10.014;2023-08-06T06:06:58;16.10;99.90
38582;DHT22;24349;53.720;10.014;2023-08-06T06:09:24;16.20;99.90
38582;DHT22;24349;53.720;10.014;2023-08-06T06:11:49;16.20;99.90
38582;DHT22;24349;53.720;10.014;2023-08-06T06:14:17;16.20;99.90
38582;DHT22;24349;53.720;10.014;2023-08-06T06:16:42;16.30;99.90
38582;DHT22;24349;53.720;10.014;2023-08-06T06:19:08;16.30;99.90
38582;DHT22;24349;53.720;10.014;2023-08-06T06:21:33;16.40;99.90
38582;DHT22;24349;53.720;10.014;2023-08-06T06:23:59;16.40;99.90
38582;DHT22;24349;53.720;10.014;2023-08-06T06:26:25;16.50;99.90
38582;DHT22;24349;53.720;10.014;2023-08-06T06:28:50;16.40;99.90
38582;DHT22;24349;53.720;10.014;2023-08-06T06:31:16;16.50;99.90
38582;DHT22;24349;53.720;10.014;2023-08-06T06:33:41;16.60;99.90
38582;DHT22;24349;53.720;10.014;2023-08-06T06:36:07;16.60;99.90
38582;DHT22;24349;53.720;10.014;2023-08-06T06:38:33;16.60;99.90
38582;DHT22;24349;53.720;10.014;2023-08-06T06:40:59;16.60;99.90
38582;DHT22;24349;53.720;10.014;2023-08-06T06:43:26;16.70;99.90
38582;DHT22;24349;53.720;10.014;2023-08-06T06:45:58;16.70;99.90
38582;DHT22;24349;53.720;10.014;2023-08-06T06:48:28;16.70;99.90
38582;DHT22;24349;53.720;10.014;2023-08-06T06:50:54;16.70;99.90
38582;DHT22;24349;53.720;10.014;2023-08-06T06:53:19;16.60;99.90
38582;DHT22;24349;53.720;10.014;2023-08-06T06:55:45;16.60;99.90
38582;DHT22;24349;53.720;10.014;2023-08-06T06:58:15;16.50;99.90
38582;DHT22;24349;53.720;10.014;2023-08-06T07:00:41;16.50;99.90
38582;DHT22;24349;53.720;10.014;2023-08-06T07:03:06;16.60;99.90
38582;DHT22;24349;53.720;10.014;2023-08-06T07:05:32;16.50;99.90
38582;DHT22;24349;53.720;10.014;2023-08-06T07:07:58;16.60;99.90
38582;DHT22;24349;53.720;10.014;2023-08-06T07:10:23;16.60;99.90
38582;DHT22;24349;53.720;10.014;2023-08-06T07:12:49;16.50;99.90
38582;DHT22;24349;53.720;10.014;2023-08-06T07:15:15;16.50;99.90
38582;DHT22;24349;53.720;10.014;2023-08-06T07:17:40;16.60;99.90
38582;DHT22;24349;53.720;10.014;2023-08-06T07:20:06;16.60;99.90
38582;DHT22;24349;53.720;10.014;2023-08-06T07:22:32;16.70;99.90
38582;DHT22;24349;53.720;10.014;2023-08-06T07:24:58;16.80;99.90
38582;DHT22;24349;53.720;10.014;2023-08-06T07:27:24;16.80;99.90
38582;DHT22;24349;53.720;10.014;2023-08-06T07:29:50;16.80;99.90
38582;DHT22;24349;53.720;10.014;2023-08-06T07:32:16;16.90;99.90
38582;DHT22;24349;53.720;10.014;2023-08-06T07:34:41;16.90;99.90
38582;DHT22;24349;53.720;10.014;2023-08-06T07:37:07;17.00;99.90
38582;DHT22;24349;53.720;10.014;2023-08-06T07:39:32;17.10;99.90
38582;DHT22;24349;53.720;10.014;2023-08-06T07:41:58;17.20;99.90
38582;DHT22;24349;53.720;10.014;2023-08-06T07:44:24;17.20;99.90
38582;DHT22;24349;53.720;10.014;2023-08-06T07:46:50;17.30;99.90
38582;DHT22;24349;53.720;10.014;2023-08-06T07:49:16;17.40;99.90
38582;DHT22;24349;53.720;10.014;2023-08-06T07:51:41;17.40;99.90
38582;DHT22;24349;53.720;10.014;2023-08-06T07:54:07;17.40;99.90
38582;DHT22;24349;53.720;10.014;2023-08-06T07:56:33;17.50;99.90
38582;DHT22;24349;53.720;10.014;2023-08-06T07:58:58;17.60;99.90
38582;DHT22;24349;53.720;10.014;2023-08-06T08:01:24;17.60;99.90
38582;DHT22;24349;53.720;10.014;2023-08-06T08:03:49;17.60;99.90
38582;DHT22;24349;53.720;10.014;2023-08-06T08:06:15;17.80;99.90
38582;DHT22;24349;53.720;10.014;2023-08-06T08:08:41;17.80;99.90
38582;DHT22;24349;53.720;10.014;2023-08-06T08:11:07;17.80;99.90
38582;DHT22;24349;53.720;10.014;2023-08-06T08:13:32;17.80;99.90
38582;DHT22;24349;53.720;10.014;2023-08-06T08:15:59;17.90;99.90
38582;DHT22;24349;53.720;10.014;2023-08-06T08:18:25;17.90;99.90
38582;DHT22;24349;53.720;10.014;2023-08-06T08:20:51;17.90;99.90
38582;DHT22;24349;53.720;10.014;2023-08-06T08:23:17;18.00;99.90
38582;DHT22;24349;53.720;10.014;2023-08-06T08:25:43;18.00;99.90
38582;DHT22;24349;53.720;10.014;2023-08-06T08:28:08;17.90;99.90
38582;DHT22;24349;53.720;10.014;2023-08-06T08:30:34;18.00;99.90
38582;DHT22;24349;53.720;10.014;2023-08-06T08:33:00;18.00;99.90
38582;DHT22;24349;53.720;10.014;2023-08-06T08:35:25;18.00;99.90
38582;DHT22;24349;53.720;10.014;2023-08-06T08:37:51;18.00;99.90
38582;DHT22;24349;53.720;10.014;2023-08-06T08:40:17;18.00;99.90
38582;DHT22;24349;53.720;10.014;2023-08-06T08:42:42;18.10;99.90
38582;DHT22;24349;53.720;10.014;2023-08-06T08:45:20;18.20;99.90
38582;DHT22;24349;53.720;10.014;2023-08-06T08:47:46;18.30;99.90
38582;DHT22;24349;53.720;10.014;2023-08-06T08:50:13;18.30;99.90
38582;DHT22;24349;53.720;10.014;2023-08-06T08:52:40;18.40;99.90
38582;DHT22;24349;53.720;10.014;2023-08-06T08:55:07;18.50;99.90
38582;DHT22;24349;53.720;10.014;2023-08-06T08:57:33;18.60;99.90
38582;DHT22;24349;53.720;10.014;2023-08-06T08:59:59;18.60;99.90
38582;DHT22;24349;53.720;10.014;2023-08-06T09:02:28;18.50;99.90
38582;DHT22;24349;53.720;10.014;2023-08-06T09:04:57;18.50;99.90
38582;DHT22;24349;53.720;10.014;2023-08-06T09:07:25;18.50;99.90
38582;DHT22;24349;53.720;10.014;2023-08-06T09:09:52;18.60;99.90
38582;DHT22;24349;53.720;10.014;2023-08-06T09:12:18;18.60;99.90
38582;DHT22;24349;53.720;10.014;2023-08-06T09:14:44;18.60;99.90
38582;DHT22;24349;53.720;10.014;2023-08-06T09:17:10;18.50;99.90
38582;DHT22;24349;53.720;10.014;2023-08-06T09:19:42;18.60;99.90
38582;DHT22;24349;53.720;10.014;2023-08-06T09:22:11;18.70;99.90
38582;DHT22;24349;53.720;10.014;2023-08-06T09:24:40;18.70;99.90
38582;DHT22;24349;53.720;10.014;2023-08-06T09:27:11;18.60;99.90
38582;DHT22;24349;53.720;10.014;2023-08-06T09:29:43;18.60;99.90
38582;DHT22;24349;53.720;10.014;2023-08-06T09:32:11;18.60;99.90
38582;DHT22;24349;53.720;10.014;2023-08-06T09:34:39;18.50;99.90
38582;DHT22;24349;53.720;10.014;2023-08-06T09:37:05;18.40;99.90
38582;DHT22;24349;53.720;10.014;2023-08-06T09:39:31;18.30;99.90
38582;DHT22;24349;53.720;10.014;2023-08-06T09:41:57;18.30;99.90
38582;DHT22;24349;53.720;10.014;2023-08-06T09:44:25;18.30;99.90
38582;DHT22;24349;53.720;10.014;2023-08-06T09:46:55;18.20;99.90
38582;DHT22;24349;53.720;10.014;2023-08-06T09:49:42;18.30;99.90
38582;DHT22;24349;53.720;10.014;2023-08-06T09:52:12;18.30;99.90
38582;DHT22;24349;53.720;10.014;2023-08-06T09:54:39;18.30;99.90
38582;DHT22;24349;53.720;10.014;2023-08-06T09:57:05;18.30;99.90
38582;DHT22;24349;53.720;10.014;2023-08-06T09:59:32;18.30;99.90
38582;DHT22;24349;53.720;10.014;2023-08-06T10:01:58;18.20;99.90
38582;DHT22;24349;53.720;10.014;2023-08-06T10:04:24;18.20;99.90
38582;DHT22;24349;53.720;10.014;2023-08-06T10:06:50;18.20;99.90
38582;DHT22;24349;53.720;10.014;2023-08-06T10:09:16;18.10;99.90
38582;DHT22;24349;53.720;10.014;2023-08-06T10:11:44;18.10;99.90
38582;DHT22;24349;53.720;10.014;2023-08-06T10:14:25;18.10;99.90
38582;DHT22;24349;53.720;10.014;2023-08-06T10:16:52;18.20;99.90
38582;DHT22;24349;53.720;10.014;2023-08-06T10:19:20;18.10;99.90
38582;DHT22;24349;53.720;10.014;2023-08-06T10:22:11;18.10;99.90
38582;DHT22;24349;53.720;10.014;2023-08-06T10:24:50;18.10;99.90
38582;DHT22;24349;53.720;10.014;2023-08-06T10:30:20;18.10;99.90
38582;DHT22;24349;53.720;10.014;2023-08-06T10:32:50;18.10;99.90
38582;DHT22;24349;53.720;10.014;2023-08-06T10:35:47;18.10;99.90
38582;DHT22;24349;53.720;10.014;2023-08-06T10:38:20;18.10;99.90
38582;DHT22;24349;53.720;10.014;2023-08-06T10:43:32;18.10;99.90
38582;DHT22;24349;53.720;10.014;2023-08-06T10:45:59;18.10;99.90
38582;DHT22;24349;53.720;10.014;2023-08-06T10:48:36;18.10;99.90
38582;DHT22;24349;53.720;10.014;2023-08-06T10:51:02;18.10;99.90
38582;DHT22;24349;53.720;10.014;2023-08-06T10:53:29;18.20;99.90
38582;DHT22;24349;53.720;10.014;2023-08-06T10:55:54;18.30;99.90
38582;DHT22;24349;53.720;10.014;2023-08-06T10:58:20;18.30;99.90
38582;DHT22;24349;53.720;10.014;2023-08-06T11:00:46;18.30;99.90
38582;DHT22;24349;53.720;10.014;2023-08-06T11:03:12;18.40;99.90
38582;DHT22;24349;53.720;10.014;2023-08-06T11:05:38;18.50;99.90
38582;DHT22;24349;53.720;10.014;2023-08-06T11:08:04;18.50;99.90
38582;DHT22;24349;53.720;10.014;2023-08-06T11:10:32;18.50;99.90
38582;DHT22;24349;53.720;10.014;2023-08-06T11:13:01;18.50;99.90
38582;DHT22;24349;53.720;10.014;2023-08-06T11:15:27;18.50;99.90
38582;DHT22;24349;53.720;10.014;2023-08-06T11:17:53;18.50;99.90
38582;DHT22;24349;53.720;10.014;2023-08-06T11:20:20;18.50;99.90
38582;DHT22;24349;53.720;10.014;2023-08-06T11:22:47;18.60;99.90
38582;DHT22;24349;53.720;10.014;2023-08-06T11:25:15;18.50;99.90
38582;DHT22;24349;53.720;10.014;2023-08-06T11:27:41;18.50;99.90
38582;DHT22;24349;53.720;10.014;2023-08-06T11:30:07;18.50;99.90
38582;DHT22;24349;53.720;10.014;2023-08-06T11:32:33;18.60;99.90
38582;DHT22;24349;53.720;10.014;2023-08-06T11:35:09;18.70;99.90
38582;DHT22;24349;53.720;10.014;2023-08-06T11:37:37;18.70;99.90
38582;DHT22;24349;53.720;10.014;2023-08-06T11:40:08;18.80;99.90
38582;DHT22;24349;53.720;10.014;2023-08-06T11:42:34;18.70;99.90
38582;DHT22;24349;53.720;10.014;2023-08-06T11:45:02;18.70;99.90
38582;DHT22;24349;53.720;10.014;2023-08-06T11:47:29;18.70;99.90
38582;DHT22;24349;53.720;10.014;2023-08-06T11:49:55;18.80;99.90
38582;DHT22;24349;53.720;10.014;2023-08-06T11:52:25;18.90;99.90
38582;DHT22;24349;53.720;10.014;2023-08-06T11:55:05;18.90;99.90
38582;DHT22;24349;53.720;10.014;2023-08-06T11:57:38;18.90;99.90
38582;DHT22;24349;53.720;10.014;2023-08-06T12:00:07;18.90;99.90
38582;DHT22;24349;53.720;10.014;2023-08-06T12:02:34;18.90;99.90
38582;DHT22;24349;53.720;10.014;2023-08-06T12:07:33;19.20;99.90
38582;DHT22;24349;53.720;10.014;2023-08-06T12:10:01;19.30;99.90
38582;DHT22;24349;53.720;10.014;2023-08-06T12:12:27;19.40;99.90
38582;DHT22;24349;53.720;10.014;2023-08-06T12:14:53;19.50;99.90
38582;DHT22;24349;53.720;10.014;2023-08-06T12:17:19;19.50;99.90
38582;DHT22;24349;53.720;10.014;2023-08-06T12:19:45;19.50;99.90
38582;DHT22;24349;53.720;10.014;2023-08-06T12:22:14;19.50;99.90
38582;DHT22;24349;53.720;10.014;2023-08-06T12:24:41;19.60;99.90
38582;DHT22;24349;53.720;10.014;2023-08-06T12:27:07;19.70;99.90
38582;DHT22;24349;53.720;10.014;2023-08-06T12:29:33;19.80;99.90
38582;DHT22;24349;53.720;10.014;2023-08-06T12:31:58;19.90;99.90
38582;DHT22;24349;53.720;10.014;2023-08-06T12:34:24;19.90;99.90
38582;DHT22;24349;53.720;10.014;2023-08-06T12:36:50;19.90;99.90
38582;DHT22;24349;53.720;10.014;2023-08-06T12:39:15;19.90;99.90
38582;DHT22;24349;53.720;10.014;2023-08-06T12:41:41;19.80;99.90
38582;DHT22;24349;53.720;10.014;2023-08-06T12:44:09;19.80;99.90
38582;DHT22;24349;53.720;10.014;2023-08-06T12:46:34;19.90;99.90
38582;DHT22;24349;53.720;10.014;2023-08-06T12:49:00;20.00;99.90
38582;DHT22;24349;53.720;10.014;2023-08-06T12:51:25;20.00;99.90
38582;DHT22;24349;53.720;10.014;2023-08-06T12:53:51;20.00;99.90
38582;DHT22;24349;53.720;10.014;2023-08-06T12:56:17;20.10;99.90
38582;DHT22;24349;53.720;10.014;2023-08-06T12:58:42;20.20;99.90
38582;DHT22;24349;53.720;10.014;2023-08-06T13:01:08;20.40;99.90
38582;DHT22;24349;53.720;10.014;2023-08-06T13:03:33;20.60;99.90
38582;DHT22;24349;53.720;10.014;2023-08-06T13:05:59;20.70;99.90
38582;DHT22;24349;53.720;10.014;2023-08-06T13:08:25;20.90;99.90
38582;DHT22;24349;53.720;10.014;2023-08-06T13:10:50;20.80;99.90
38582;DHT22;24349;53.720;10.014;2023-08-06T13:13:16;20.80;99.90
38582;DHT22;24349;53.720;10.014;2023-08-06T13:15:41;20.70;99.90
38582;DHT22;24349;53.720;10.014;2023-08-06T13:18:07;20.50;99.90
38582;DHT22;24349;53.720;10.014;2023-08-06T13:20:33;20.50;99.90
38582;DHT22;24349;53.720;10.014;2023-08-06T13:22:59;20.50;99.90
38582;DHT22;24349;53.720;10.014;2023-08-06T13:25:26;20.70;99.90
38582;DHT22;24349;53.720;10.014;2023-08-06T13:27:53;20.70;99.90
38582;DHT22;24349;53.720;10.014;2023-08-06T13:30:20;20.60;99.90
38582;DHT22;24349;53.720;10.014;2023-08-06T13:32:46;20.50;99.90
38582;DHT22;24349;53.720;10.014;2023-08-06T13:35:11;20.30;99.90
38582;DHT22;24349;53.720;10.014;2023-08-06T13:37:37;20.30;99.90
38582;DHT22;24349;53.720;10.014;2023-08-06T13:40:03;20.00;99.90
38582;DHT22;24349;53.720;10.014;2023-08-06T13:42:29;19.90;99.90
38582;DHT22;24349;53.720;10.014;2023-08-06T13:44:55;19.80;99.90
38582;DHT22;24349;53.720;10.014;2023-08-06T13:47:27;19.90;99.90
38582;DHT22;24349;53.720;10.014;2023-08-06T13:49:53;19.80;99.90
38582;DHT22;24349;53.720;10.014;2023-08-06T13:52:19;19.80;99.90
38582;DHT22;24349;53.720;10.014;2023-08-06T13:54:45;19.80;99.90
38582;DHT22;24349;53.720;10.014;2023-08-06T13:57:10;19.70;99.90
38582;DHT22;24349;53.720;10.014;2023-08-06T13:59:36;19.50;99.90
38582;DHT22;24349;53.720;10.014;2023-08-06T14:02:01;19.40;99.90
38582;DHT22;24349;53.720;10.014;2023-08-06T14:04:27;19.40;99.90
38582;DHT22;24349;53.720;10.014;2023-08-06T14:06:53;19.30;99.90
38582;DHT22;24349;53.720;10.014;2023-08-06T14:09:18;19.10;99.90
38582;DHT22;24349;53.720;10.014;2023-08-06T14:11:44;19.10;99.90
38582;DHT22;24349;53.720;10.014;2023-08-06T14:14:11;19.00;99.90
38582;DHT22;24349;53.720;10.014;2023-08-06T14:16:36;18.90;99.90
38582;DHT22;24349;53.720;10.014;2023-08-06T14:19:02;18.80;99.90
38582;DHT22;24349;53.720;10.014;2023-08-06T14:21:28;18.70;99.90
38582;DHT22;24349;53.720;10.014;2023-08-06T14:23:54;18.70;99.90
38582;DHT22;24349;53.720;10.014;2023-08-06T14:26:20;18.40;99.90
38582;DHT22;24349;53.720;10.014;2023-08-06T14:28:45;18.40;99.90
38582;DHT22;24349;53.720;10.014;2023-08-06T14:31:11;18.50;99.90
38582;DHT22;24349;53.720;10.014;2023-08-06T14:33:37;18.30;99.90
38582;DHT22;24349;53.720;10.014;2023-08-06T14:36:03;18.30;99.90
38582;DHT22;24349;53.720;10.014;2023-08-06T14:38:28;18.20;99.90
38582;DHT22;24349;53.720;10.014;2023-08-06T14:40:54;18.20;99.90
38582;DHT22;24349;53.720;10.014;2023-08-06T14:43:20;18.30;99.90
38582;DHT22;24349;53.720;10.014;2023-08-06T14:45:45;18.40;99.90
38582;DHT22;24349;53.720;10.014;2023-08-06T14:48:11;18.50;99.90
38582;DHT22;24349;53.720;10.014;2023-08-06T14:50:36;18.50;99.90
38582;DHT22;24349;53.720;10.014;2023-08-06T14:53:04;18.40;99.90
38582;DHT22;24349;53.720;10.014;2023-08-06T14:55:31;18.30;99.90
38582;DHT22;24349;53.720;10.014;2023-08-06T14:57:57;18.30;99.90
38582;DHT22;24349;53.720;10.014;2023-08-06T15:00:22;18.50;99.90
38582;DHT22;24349;53.720;10.014;2023-08-06T15:02:48;18.50;99.90
38582;DHT22;24349;53.720;10.014;2023-08-06T15:05:14;18.50;99.90
38582;DHT22;24349;53.720;10.014;2023-08-06T15:07:39;18.50;99.90
38582;DHT22;24349;53.720;10.014;2023-08-06T15:10:05;18.50;99.90
38582;DHT22;24349;53.720;10.014;2023-08-06T15:12:32;18.50;99.90
38582;DHT22;24349;53.720;10.014;2023-08-06T15:14:58;18.40;99.90
38582;DHT22;24349;53.720;10.014;2023-08-06T15:17:26;18.30;99.90
38582;DHT22;24349;53.720;10.014;2023-08-06T15:19:52;18.20;99.90
38582;DHT22;24349;53.720;10.014;2023-08-06T15:22:17;18.20;99.90
38582;DHT22;24349;53.720;10.014;2023-08-06T15:24:43;18.20;99.90
38582;DHT22;24349;53.720;10.014;2023-08-06T15:27:09;18.40;99.90
38582;DHT22;24349;53.720;10.014;2023-08-06T15:29:35;18.40;99.90